Newhall, IA (52315)

1:11 PM CDT on September 20, 2014 (GMT -0500)
Ridgeview Estates | Change Station
CLOSE
Current Station
Personal Weather Station
Location: Atkins, IA
Elevation: 860 ft
Nearby Weather Stations

Elev 860 ft 41.99 °N, 91.85 °W | Updated 60 seconds ago

Thunderstorm
Thunderstorm
69.8 °F
Feels Like 69.8 °F
N
4.6
Wind Variable Wind from South
Gusts 8.7 mph

Today
High -- | Low -- °F
--% Chance of Precip.
Yesterday
High -- | Low -- °F
Precip. -- in
6:53 AM 7:08 PM
Waning Crescent, 11% visible
Pressure 29.88 in
Visibility 3.0 miles
Clouds Scattered Clouds 6500 ft
Mostly Cloudy 8000 ft
Overcast 9000 ft
Dew Point 68 °F
Humidity 93%
Rainfall 0.12 in
Snow Depth Not available.
UV 2 out of 12
Pollen 4.60 out of 12
Air Quality Not available.
Flu Activity Not available.
METAR KCID 201752Z 26007KT 3SM TSRA SCT065 BKN080 OVC090 22/20 A2989 RMK AO2 LTG DSNT W RAB42 TSB13E18B46 PRESRR SLP118 P0003 60005 T02170200 10222 20178 51017

More Conditions Fewer Conditions

Pressure 29.88 in
Visibility 3.0 miles
Clouds Scattered Clouds 6500 ft
Mostly Cloudy 8000 ft
Overcast 9000 ft
Dew Point 68 °F
Humidity 93%
Rainfall 0.12 in
Snow Depth Not available.
UV 2 out of 12
Pollen 4.60 out of 12
Air Quality Not available.
Flu Activity Not available.
METAR KCID 201752Z 26007KT 3SM TSRA SCT065 BKN080 OVC090 22/20 A2989 RMK AO2 LTG DSNT W RAB42 TSB13E18B46 PRESRR SLP118 P0003 60005 T02170200 10222 20178 51017

More Conditions Fewer Conditions

10-Day Weather Forecast

Almanac

Astronomy

Sep. 20, 2014 Rise Set
Actual Time 6:53 AM CDT 7:08 PM CDT
Civil Twilight 6:25 AM CDT 7:36 PM CDT
Nautical Twilight 5:52 AM CDT 8:09 PM CDT
Astronomical Twilight 5:18 AM CDT 8:42 PM CDT
Moon 3:30 AM CDT 5:14 PM CDT
Length of Visible Light 13h 11m
Length of Day
12h 15m
Tomorrow will be 2m 48s shorter.
Waning Crescent, 11% of the Moon is Illuminated
Today
Waning Crescent
Sep 24
New
Oct 1
First Quarter
Oct 8
Full
Oct 15
Last Quarter

Today's Extremes

State Highs State Lows

Community

WunderPhotos

Upload Photos

1,754,921 photos uploaded!

WunderBlogs® & News

Nearby

Snow Depth

Station Depth Elevation
No new snow has been reported.

Earthquake Activity

City Distance Mag. Time & Date
No recent earthquake activity has been reported nearby.
Minimum magnitude displayed is 2.5.

Coastal Water Temperatures

Place Temperature
No Stations Reporting

Nearby Weather Stations